createdAt,value
2018-07-19T00:02:04.628Z,6.62
2018-07-19T00:04:33.015Z,6.12
2018-07-19T00:07:00.968Z,5.92
2018-07-19T00:09:29.001Z,6.20
2018-07-19T00:11:57.185Z,5.80
2018-07-19T00:14:25.246Z,6.15
2018-07-19T00:16:53.240Z,5.90
2018-07-19T00:19:21.247Z,5.40
2018-07-19T00:21:49.351Z,6.05
2018-07-19T00:24:17.380Z,5.67
2018-07-19T00:26:45.388Z,5.62
2018-07-19T00:29:13.406Z,5.45
2018-07-19T00:31:41.449Z,5.42
2018-07-19T00:34:09.504Z,5.22
2018-07-19T00:36:37.649Z,5.72
2018-07-19T00:39:06.958Z,5.65
2018-07-19T00:41:35.068Z,5.05
2018-07-19T00:44:03.240Z,5.67
2018-07-19T00:46:31.355Z,5.50
2018-07-19T00:48:59.357Z,5.08
2018-07-19T00:51:27.343Z,5.35
2018-07-19T00:53:55.510Z,5.05
2018-07-19T00:56:23.476Z,5.08
2018-07-19T00:58:51.555Z,4.70
2018-07-19T01:01:19.540Z,5.22
2018-07-19T01:03:47.577Z,4.62
2018-07-19T01:06:15.583Z,5.45
2018-07-19T01:08:43.515Z,4.78
2018-07-19T01:11:11.510Z,5.53
2018-07-19T01:13:39.596Z,5.12
2018-07-19T01:16:07.599Z,5.08
2018-07-19T01:18:35.564Z,4.45
2018-07-19T01:21:04.863Z,5.50
2018-07-19T01:23:33.754Z,5.40
2018-07-19T01:26:01.707Z,5.20
2018-07-19T01:28:29.713Z,5.33
2018-07-19T01:30:57.825Z,5.40
2018-07-19T01:33:25.775Z,5.30
2018-07-19T01:35:53.872Z,5.58
2018-07-19T01:38:21.920Z,5.67
2018-07-19T01:40:49.886Z,5.90
2018-07-19T01:43:17.856Z,6.40
2018-07-19T01:45:45.949Z,5.58
2018-07-19T01:48:13.927Z,6.05
2018-07-19T01:50:41.968Z,6.22
2018-07-19T01:53:09.967Z,5.47
2018-07-19T01:55:38.004Z,6.00
2018-07-19T01:58:06.268Z,6.28
2018-07-19T02:00:34.348Z,6.20
2018-07-19T02:03:02.457Z,6.00
2018-07-19T02:05:30.473Z,5.85
2018-07-19T02:07:59.364Z,5.92
2018-07-19T02:10:27.327Z,5.78
2018-07-19T02:12:55.400Z,6.08
2018-07-19T02:15:23.460Z,6.00
2018-07-19T02:17:51.457Z,5.75
2018-07-19T02:20:19.538Z,5.47
2018-07-19T02:22:47.625Z,5.95
2018-07-19T02:25:15.651Z,6.90
2018-07-19T02:27:43.645Z,7.05
2018-07-19T02:30:11.689Z,7.40
2018-07-19T02:32:39.672Z,7.35
2018-07-19T02:35:07.725Z,7.10
2018-07-19T02:37:35.929Z,6.80
2018-07-19T02:40:04.326Z,7.00
2018-07-19T02:42:32.415Z,6.53
2018-07-19T02:45:00.456Z,7.35
2018-07-19T02:47:28.399Z,6.17
2018-07-19T02:49:56.531Z,6.53
2018-07-19T02:52:24.564Z,6.62
2018-07-19T02:54:52.600Z,6.35
2018-07-19T02:57:20.572Z,7.45
2018-07-19T02:59:48.609Z,7.67
2018-07-19T03:02:17.659Z,7.15
2018-07-19T03:04:45.713Z,7.60
2018-07-19T03:07:13.735Z,7.60
2018-07-19T03:09:41.708Z,7.42
2018-07-19T03:12:09.955Z,6.92
2018-07-19T03:14:37.958Z,7.47
2018-07-19T03:17:06.117Z,7.72
2018-07-19T03:19:34.139Z,7.50
2018-07-19T03:22:02.224Z,7.37
2018-07-19T03:24:30.217Z,6.83
2018-07-19T03:26:58.283Z,5.65
2018-07-19T03:29:26.358Z,6.20
2018-07-19T03:31:54.357Z,5.40
2018-07-19T03:34:23.284Z,5.85
2018-07-19T03:36:52.430Z,5.67
2018-07-19T03:39:20.550Z,6.05
2018-07-19T03:41:48.664Z,5.47
2018-07-19T03:44:16.702Z,6.08
2018-07-19T03:46:44.725Z,5.70
2018-07-19T03:49:12.712Z,5.30
2018-07-19T03:51:40.719Z,5.70
2018-07-19T03:54:08.752Z,5.53
2018-07-19T03:56:36.758Z,5.85
2018-07-19T03:59:05.029Z,5.78
2018-07-19T04:01:33.120Z,5.85
2018-07-19T04:04:01.140Z,4.87
2018-07-19T04:06:29.228Z,6.05
2018-07-19T04:08:57.386Z,5.53
2018-07-19T04:11:25.489Z,5.70
2018-07-19T04:13:53.556Z,5.25
2018-07-19T04:16:21.771Z,5.70
2018-07-19T04:18:49.814Z,5.40
2018-07-19T04:21:17.843Z,5.08
2018-07-19T04:23:45.932Z,4.87
2018-07-19T04:26:13.994Z,4.90
2018-07-19T04:28:42.735Z,4.80
2018-07-19T04:31:10.768Z,5.42
2018-07-19T04:33:38.816Z,4.97
2018-07-19T04:36:07.051Z,4.80
2018-07-19T04:38:35.153Z,4.70
2018-07-19T04:41:03.208Z,5.15
2018-07-19T04:43:31.210Z,5.10
2018-07-19T04:45:59.229Z,5.62
2018-07-19T04:48:27.300Z,5.53
2018-07-19T04:50:55.422Z,5.35
2018-07-19T04:53:23.609Z,5.22
2018-07-19T04:55:51.719Z,4.95
2018-07-19T04:58:19.750Z,5.78
2018-07-19T05:00:48.007Z,5.33
2018-07-19T05:03:16.075Z,4.62
2018-07-19T05:05:44.097Z,5.15
2018-07-19T05:08:12.208Z,5.00
2018-07-19T05:10:40.204Z,5.55
2018-07-19T05:13:08.199Z,4.78
2018-07-19T05:15:36.317Z,4.65
2018-07-19T05:18:04.401Z,4.50
2018-07-19T05:20:33.100Z,4.03
2018-07-19T05:23:01.139Z,4.08
2018-07-19T05:25:29.330Z,4.70
2018-07-19T05:27:57.723Z,4.67
2018-07-19T05:30:25.692Z,4.10
2018-07-19T05:32:53.711Z,4.60
2018-07-19T05:35:21.675Z,5.20
2018-07-19T05:37:49.593Z,4.28
2018-07-19T05:40:17.690Z,4.30
2018-07-19T05:42:45.722Z,3.52
2018-07-19T05:45:13.725Z,4.37
2018-07-19T05:47:41.674Z,4.30
2018-07-19T05:50:09.700Z,4.08
2018-07-19T05:52:38.684Z,4.00
2018-07-19T05:55:06.652Z,4.25
2018-07-19T05:57:34.715Z,4.62
2018-07-19T06:00:03.126Z,4.42
2018-07-19T06:02:31.119Z,4.47
2018-07-19T06:04:59.099Z,4.40
2018-07-19T06:07:26.996Z,4.55
2018-07-19T06:09:54.914Z,3.98
2018-07-19T06:12:22.920Z,3.90
2018-07-19T06:14:50.927Z,4.12
2018-07-19T06:17:18.909Z,3.80
2018-07-19T06:19:46.824Z,3.72
2018-07-19T06:22:14.772Z,4.00
2018-07-19T06:24:42.745Z,3.72
2018-07-19T06:27:10.940Z,4.50
2018-07-19T06:29:38.913Z,3.00
2018-07-19T06:32:06.998Z,3.98
2018-07-19T06:34:35.600Z,4.10
2018-07-19T06:37:03.573Z,3.80
2018-07-19T06:39:31.641Z,3.65
2018-07-19T06:41:59.606Z,3.70
2018-07-19T06:44:27.829Z,3.60
2018-07-19T06:46:55.868Z,3.67
2018-07-19T06:49:24.206Z,3.90
2018-07-19T06:51:52.267Z,3.80
2018-07-19T06:54:20.311Z,4.30
2018-07-19T06:56:48.481Z,4.03
2018-07-19T06:59:16.476Z,4.12
2018-07-19T07:01:44.445Z,4.08
2018-07-19T07:04:12.391Z,4.27
2018-07-19T07:06:40.391Z,4.30
2018-07-19T07:09:10.354Z,4.30
2018-07-19T07:11:38.389Z,4.42
2018-07-19T07:14:06.744Z,3.98
2018-07-19T07:16:34.748Z,3.85
2018-07-19T07:19:02.792Z,4.30
2018-07-19T07:21:30.946Z,4.62
2018-07-19T07:23:58.965Z,4.35
2018-07-19T07:26:26.918Z,4.25
2018-07-19T07:28:54.917Z,4.70
2018-07-19T07:31:23.246Z,4.45
2018-07-19T07:33:51.364Z,4.53
2018-07-19T07:36:19.438Z,3.75
2018-07-19T07:38:47.936Z,3.80
2018-07-19T07:41:16.072Z,4.00
2018-07-19T07:43:44.072Z,4.55
2018-07-19T07:46:12.128Z,3.83
2018-07-19T07:48:40.086Z,4.00
2018-07-19T07:51:08.074Z,4.30
2018-07-19T07:53:36.151Z,3.85
2018-07-19T07:56:04.210Z,3.67
2018-07-19T07:58:32.362Z,3.90
2018-07-19T08:01:00.956Z,4.33
2018-07-19T08:03:29.884Z,3.98
2018-07-19T08:05:58.074Z,3.85
2018-07-19T08:08:26.023Z,3.90
2018-07-19T08:10:54.218Z,3.70
2018-07-19T08:13:22.474Z,3.90
2018-07-19T08:15:50.547Z,3.80
2018-07-19T08:18:18.480Z,3.40
2018-07-19T08:20:47.143Z,3.62
2018-07-19T08:23:15.153Z,3.92
2018-07-19T08:25:43.152Z,3.52
2018-07-19T08:28:11.213Z,3.37
2018-07-19T08:30:44.570Z,3.33
2018-07-19T08:33:12.623Z,3.42
2018-07-19T08:35:40.594Z,3.25
2018-07-19T08:38:09.189Z,3.35
2018-07-19T08:40:37.734Z,3.20
2018-07-19T08:43:06.034Z,3.37
2018-07-19T08:45:34.531Z,3.40
2018-07-19T08:48:04.713Z,3.40
2018-07-19T08:50:32.630Z,3.35
2018-07-19T08:53:00.598Z,3.60
2018-07-19T08:55:28.637Z,3.55
2018-07-19T08:57:56.670Z,3.60
2018-07-19T09:00:24.724Z,3.50
2018-07-19T09:02:52.935Z,3.60
2018-07-19T09:05:21.227Z,3.45
2018-07-19T09:07:49.170Z,3.45
2018-07-19T09:10:17.675Z,3.37
2018-07-19T09:12:45.814Z,3.37
2018-07-19T09:15:13.768Z,4.00
2018-07-19T09:17:41.824Z,3.80
2018-07-19T09:20:09.877Z,4.08
2018-07-19T09:22:38.079Z,4.22
2018-07-19T09:25:06.407Z,4.25
2018-07-19T09:27:34.480Z,4.00
2018-07-19T09:30:02.614Z,4.60
2018-07-19T09:32:30.675Z,4.40
2018-07-19T09:34:58.747Z,4.70
2018-07-19T09:37:26.673Z,5.17
2018-07-19T09:39:54.631Z,4.62
2018-07-19T09:42:22.708Z,4.72
2018-07-19T09:44:50.714Z,5.08
2018-07-19T09:47:18.773Z,5.25
2018-07-19T09:49:46.690Z,5.10
2018-07-19T09:52:14.732Z,5.00
2018-07-19T09:54:57.937Z,5.20
2018-07-19T09:57:26.629Z,5.40
2018-07-19T09:59:54.803Z,5.08
2018-07-19T10:02:22.964Z,5.15
2018-07-19T10:04:50.862Z,4.90
2018-07-19T10:07:19.167Z,4.90
2018-07-19T10:09:47.164Z,4.40
2018-07-19T10:12:15.075Z,5.00
2018-07-19T10:14:43.353Z,4.67
2018-07-19T10:17:11.275Z,4.78
2018-07-19T10:19:39.274Z,5.30
2018-07-19T10:22:07.760Z,4.12
2018-07-19T10:24:35.699Z,4.60
2018-07-19T10:27:03.632Z,4.35
2018-07-19T10:29:31.565Z,4.05
2018-07-19T10:31:59.515Z,4.47
2018-07-19T10:34:27.552Z,4.10
2018-07-19T10:36:55.513Z,4.10
2018-07-19T10:39:23.535Z,3.90
2018-07-19T10:41:51.528Z,3.90
2018-07-19T10:44:19.712Z,4.10
2018-07-19T10:46:48.465Z,3.70
2018-07-19T10:49:16.542Z,3.80
2018-07-19T10:51:44.892Z,3.80
2018-07-19T10:54:12.827Z,3.70
2018-07-19T10:56:42.247Z,3.80
2018-07-19T10:59:10.227Z,3.62
2018-07-19T11:01:38.360Z,3.60
2018-07-19T11:04:06.391Z,4.03
2018-07-19T11:06:34.482Z,3.85
2018-07-19T11:09:02.566Z,3.83
2018-07-19T11:11:30.564Z,4.00
2018-07-19T11:13:58.489Z,3.80
2018-07-19T11:16:26.480Z,3.47
2018-07-19T11:18:54.438Z,3.62
2018-07-19T11:21:22.492Z,3.67
2018-07-19T11:23:50.631Z,3.60
2018-07-19T11:26:18.695Z,4.10
2018-07-19T11:28:46.733Z,3.77
2018-07-19T11:31:16.981Z,4.05
2018-07-19T11:33:45.025Z,3.30
2018-07-19T11:36:12.986Z,4.05
2018-07-19T11:38:40.953Z,3.80
2018-07-19T11:41:08.933Z,3.80
2018-07-19T11:43:36.874Z,3.42
2018-07-19T11:46:04.779Z,3.60
2018-07-19T11:48:32.641Z,3.40
2018-07-19T11:51:00.663Z,3.20
2018-07-19T11:53:28.623Z,3.30
2018-07-19T11:55:56.970Z,3.50
2018-07-19T11:58:24.990Z,3.67
2018-07-19T12:00:52.861Z,3.20
2018-07-19T12:03:20.835Z,3.33
2018-07-19T12:05:48.921Z,3.40
2018-07-19T12:08:16.879Z,3.10
2018-07-19T12:10:44.826Z,3.10
2018-07-19T12:13:12.774Z,2.83
2018-07-19T12:15:40.718Z,3.27
2018-07-19T12:18:08.775Z,2.92
2018-07-19T12:20:36.682Z,3.10
2018-07-19T12:23:04.666Z,3.22
2018-07-19T12:25:33.426Z,2.80
2018-07-19T12:28:01.411Z,3.10
2018-07-19T12:30:29.442Z,2.92
2018-07-19T12:32:57.425Z,2.80
2018-07-19T12:35:25.397Z,2.83
2018-07-19T12:37:53.307Z,2.98
2018-07-19T12:40:21.359Z,3.08
2018-07-19T12:42:49.315Z,3.20
2018-07-19T12:45:17.283Z,2.80
2018-07-19T12:47:45.316Z,3.10
2018-07-19T12:50:13.381Z,2.95
2018-07-19T12:52:41.327Z,2.70
2018-07-19T12:55:09.265Z,2.70
2018-07-19T12:57:37.262Z,2.58
2018-07-19T13:00:05.921Z,2.72
2018-07-19T13:02:33.894Z,2.92
2018-07-19T13:05:01.877Z,2.98
2018-07-19T13:07:29.986Z,2.87
2018-07-19T13:09:57.933Z,2.70
2018-07-19T13:12:25.994Z,2.75
2018-07-19T13:14:53.978Z,2.90
2018-07-19T13:17:23.701Z,2.98
2018-07-19T13:19:51.949Z,2.90
2018-07-19T13:22:20.037Z,2.45
2018-07-19T13:24:48.064Z,2.72
2018-07-19T13:27:16.065Z,3.52
2018-07-19T13:29:44.048Z,3.40
2018-07-19T13:32:12.077Z,3.20
2018-07-19T13:34:40.295Z,3.40
2018-07-19T13:37:08.262Z,3.65
2018-07-19T13:39:36.300Z,3.75
2018-07-19T13:42:04.293Z,4.12
2018-07-19T13:44:32.286Z,3.58
2018-07-19T13:47:00.479Z,3.60
2018-07-19T13:49:28.541Z,3.75
2018-07-19T13:51:56.537Z,4.10
2018-07-19T13:54:36.613Z,3.70
2018-07-19T13:57:04.515Z,3.80
2018-07-19T13:59:32.995Z,3.40
2018-07-19T14:02:00.886Z,4.47
2018-07-19T14:04:28.799Z,3.90
2018-07-19T14:06:56.795Z,3.90
2018-07-19T14:09:29.930Z,3.83
2018-07-19T14:11:57.946Z,4.37
2018-07-19T14:14:26.450Z,3.67
2018-07-19T14:16:54.437Z,4.30
2018-07-19T14:19:22.369Z,3.60
2018-07-19T14:21:50.340Z,3.90
2018-07-19T14:24:18.392Z,3.80
2018-07-19T14:26:47.481Z,5.03
2018-07-19T14:29:15.486Z,3.95
2018-07-19T14:31:43.434Z,4.47
2018-07-19T14:34:11.539Z,3.90
2018-07-19T14:36:39.462Z,4.70
2018-07-19T14:39:10.068Z,4.40
2018-07-19T14:41:38.250Z,4.05
2018-07-19T14:44:06.723Z,4.37
2018-07-19T14:46:34.826Z,4.17
2018-07-19T14:49:02.828Z,3.75
2018-07-19T14:51:30.858Z,4.10
2018-07-19T14:53:59.393Z,4.40
2018-07-19T14:56:27.334Z,4.17
2018-07-19T14:58:55.320Z,3.40
2018-07-19T15:01:23.377Z,3.60
2018-07-19T15:03:51.401Z,3.70
2018-07-19T15:06:19.441Z,3.40
2018-07-19T15:08:47.752Z,3.22
2018-07-19T15:11:15.663Z,3.60
2018-07-19T15:13:43.705Z,3.47
2018-07-19T15:16:11.916Z,4.05
2018-07-19T15:18:40.984Z,3.50
2018-07-19T15:21:08.875Z,3.40
2018-07-19T15:23:36.865Z,4.10
2018-07-19T15:26:04.929Z,4.10
2018-07-19T15:28:32.897Z,4.67
2018-07-19T15:31:00.860Z,5.03
2018-07-19T15:33:28.995Z,5.87
2018-07-19T15:35:56.921Z,4.10
2018-07-19T15:38:24.903Z,4.78
2018-07-19T15:40:52.916Z,5.45
2018-07-19T15:43:20.890Z,5.22
2018-07-19T15:45:48.837Z,6.55
2018-07-19T15:48:16.828Z,6.42
2018-07-19T15:50:44.711Z,7.22
2018-07-19T15:53:12.703Z,7.97
2018-07-19T15:55:40.629Z,6.80
2018-07-19T15:58:08.570Z,7.72
2018-07-19T16:00:36.634Z,6.55
2018-07-19T16:03:04.733Z,8.80
2018-07-19T16:05:32.776Z,7.92
2018-07-19T16:08:00.958Z,8.78
2018-07-19T16:10:29.012Z,10.18
2018-07-19T16:12:57.090Z,8.63
2018-07-19T16:15:25.083Z,8.85
2018-07-19T16:17:53.142Z,12.70
2018-07-19T16:20:21.055Z,8.58
2018-07-19T16:22:49.314Z,9.48
2018-07-19T16:25:17.303Z,10.32
2018-07-19T16:27:45.277Z,10.15
2018-07-19T16:30:13.356Z,10.18
2018-07-19T16:32:41.489Z,9.55
2018-07-19T16:35:09.590Z,8.45
2018-07-19T16:37:37.611Z,10.98
2018-07-19T16:40:05.997Z,12.28
2018-07-19T16:42:33.996Z,12.03
2018-07-19T16:45:02.290Z,9.90
2018-07-19T16:47:30.210Z,12.82
2018-07-19T16:49:58.141Z,9.53
2018-07-19T16:52:26.064Z,8.95
2018-07-19T16:54:54.017Z,7.65
2018-07-19T16:57:22.189Z,7.12
2018-07-19T16:59:50.167Z,7.47
2018-07-19T17:02:18.090Z,6.60
2018-07-19T17:04:46.381Z,6.25
2018-07-19T17:07:14.662Z,5.87
2018-07-19T17:09:43.152Z,6.05
2018-07-19T17:12:11.115Z,6.22
2018-07-19T17:14:39.339Z,6.30
2018-07-19T17:17:07.351Z,5.55
2018-07-19T17:19:35.569Z,6.05
2018-07-19T17:22:03.643Z,5.10
2018-07-19T17:24:31.598Z,6.45
2018-07-19T17:26:59.749Z,6.00
2018-07-19T17:29:27.907Z,5.75
2018-07-19T17:31:55.879Z,5.62
2018-07-19T17:34:23.966Z,5.15
2018-07-19T17:36:51.961Z,5.37
2018-07-19T17:39:19.997Z,5.33
2018-07-19T17:41:49.187Z,5.62
2018-07-19T17:44:17.207Z,5.97
2018-07-19T17:46:45.199Z,5.97
2018-07-19T17:49:13.245Z,5.65
2018-07-19T17:51:41.226Z,6.60
2018-07-19T17:54:09.149Z,6.40
2018-07-19T17:56:37.112Z,7.42
2018-07-19T17:59:05.129Z,7.87
2018-07-19T18:01:33.057Z,6.67
2018-07-19T18:04:01.088Z,6.55
2018-07-19T18:06:29.161Z,7.62
2018-07-19T18:08:57.107Z,7.42
2018-07-19T18:11:25.111Z,7.85
2018-07-19T18:13:53.129Z,8.45
2018-07-19T18:16:21.178Z,8.28
2018-07-19T18:18:49.407Z,7.80
2018-07-19T18:21:17.402Z,8.58
2018-07-19T18:23:45.332Z,8.98
2018-07-19T18:26:13.948Z,8.88
2018-07-19T18:28:41.988Z,8.13
2018-07-19T18:31:09.932Z,9.13
2018-07-19T18:33:37.937Z,9.18
2018-07-19T18:36:05.946Z,7.40
2018-07-19T18:38:33.997Z,8.48
2018-07-19T18:41:02.123Z,8.18
2018-07-19T18:43:30.151Z,8.10
2018-07-19T18:45:58.127Z,8.88
2018-07-19T18:48:26.069Z,8.63
2018-07-19T18:50:54.078Z,7.40
2018-07-19T18:53:22.056Z,8.18
2018-07-19T18:55:50.080Z,8.10
2018-07-19T18:58:18.041Z,8.40
2018-07-19T19:00:49.027Z,8.55
2018-07-19T19:03:17.129Z,7.92
2018-07-19T19:05:45.133Z,7.55
2018-07-19T19:08:13.310Z,7.80
2018-07-19T19:10:41.480Z,6.97
2018-07-19T19:13:09.534Z,7.08
2018-07-19T19:15:37.642Z,7.20
2018-07-19T19:18:05.813Z,7.92
2018-07-19T19:20:33.896Z,6.90
2018-07-19T19:23:01.960Z,6.70
2018-07-19T19:25:29.998Z,7.90
2018-07-19T19:27:57.985Z,6.12
2018-07-19T19:30:26.002Z,6.33
2018-07-19T19:32:57.956Z,6.20
2018-07-19T19:35:25.921Z,6.87
2018-07-19T19:37:54.485Z,6.03
2018-07-19T19:40:22.485Z,6.90
2018-07-19T19:42:50.542Z,7.20
2018-07-19T19:45:18.884Z,7.05
2018-07-19T19:47:46.917Z,7.35
2018-07-19T19:50:14.953Z,6.55
2018-07-19T19:52:42.962Z,7.37
2018-07-19T19:55:11.340Z,7.10
2018-07-19T19:57:39.294Z,7.33
2018-07-19T20:00:07.419Z,7.67
2018-07-19T20:02:35.706Z,8.00
2018-07-19T20:05:20.628Z,7.72
2018-07-19T20:07:48.889Z,8.00
2018-07-19T20:10:17.226Z,7.95
2018-07-19T20:12:45.274Z,7.70
2018-07-19T20:15:14.500Z,8.88
2018-07-19T20:17:43.049Z,8.33
2018-07-19T20:20:11.090Z,8.30
2018-07-19T20:22:39.110Z,7.83
2018-07-19T20:25:07.392Z,7.72
2018-07-19T20:27:35.434Z,8.45
2018-07-19T20:30:03.637Z,8.68
2018-07-19T20:32:31.599Z,8.18
2018-07-19T20:35:00.718Z,8.73
2018-07-19T20:37:28.881Z,8.08
2018-07-19T20:39:56.857Z,6.87
2018-07-19T20:42:24.781Z,6.50
2018-07-19T20:44:52.790Z,6.70
2018-07-19T20:47:20.825Z,5.78
2018-07-19T20:49:48.842Z,6.33
2018-07-19T20:52:16.802Z,5.85
2018-07-19T20:54:45.111Z,6.10
2018-07-19T20:57:13.061Z,5.62
2018-07-19T20:59:40.981Z,6.78
2018-07-19T21:02:09.001Z,6.35
2018-07-19T21:04:36.998Z,6.62
2018-07-19T21:07:05.165Z,7.00
2018-07-19T21:09:33.183Z,7.05
2018-07-19T21:12:02.395Z,7.97
2018-07-19T21:14:30.512Z,7.90
2018-07-19T21:16:58.578Z,8.53
2018-07-19T21:19:26.580Z,8.50
2018-07-19T21:21:54.643Z,8.20
2018-07-19T21:24:22.636Z,8.08
2018-07-19T21:26:50.739Z,7.85
2018-07-19T21:29:18.750Z,8.55
2018-07-19T21:31:46.682Z,8.38
2018-07-19T21:34:14.722Z,8.48
2018-07-19T21:36:42.763Z,8.55
2018-07-19T21:39:11.650Z,8.68
2018-07-19T21:41:39.920Z,8.55
2018-07-19T21:44:08.175Z,9.50
2018-07-19T21:46:36.131Z,10.00
2018-07-19T21:49:04.622Z,10.35
2018-07-19T21:51:32.612Z,9.45
2018-07-19T21:54:00.871Z,9.60
2018-07-19T21:56:28.934Z,10.65
2018-07-19T21:58:57.039Z,10.98
2018-07-19T22:01:25.118Z,11.12
2018-07-19T22:03:53.099Z,13.55
2018-07-19T22:06:21.123Z,11.12
2018-07-19T22:08:49.040Z,10.75
2018-07-19T22:11:17.073Z,10.65
2018-07-19T22:13:45.148Z,10.50
2018-07-19T22:16:13.077Z,11.08
2018-07-19T22:18:41.323Z,10.90
2018-07-19T22:21:09.371Z,9.83
2018-07-19T22:23:37.337Z,10.60
2018-07-19T22:26:06.260Z,10.23
2018-07-19T22:28:34.317Z,10.55
2018-07-19T22:31:02.278Z,10.32
2018-07-19T22:33:30.330Z,8.30
2018-07-19T22:35:58.326Z,7.70
2018-07-19T22:38:26.277Z,9.13
2018-07-19T22:40:54.253Z,8.13
2018-07-19T22:43:22.267Z,8.35
2018-07-19T22:45:50.354Z,7.95
2018-07-19T22:48:18.299Z,8.23
2018-07-19T22:50:46.241Z,8.38
2018-07-19T22:53:14.245Z,8.03
2018-07-19T22:55:42.296Z,8.58
2018-07-19T22:58:10.298Z,9.03
2018-07-19T23:00:38.261Z,9.75
2018-07-19T23:03:06.330Z,9.25
2018-07-19T23:05:34.368Z,9.35
2018-07-19T23:08:02.498Z,9.50
2018-07-19T23:10:30.511Z,9.33
2018-07-19T23:12:58.439Z,8.58
2018-07-19T23:15:26.470Z,9.08
2018-07-19T23:17:54.487Z,8.50
2018-07-19T23:20:22.452Z,9.13
2018-07-19T23:22:54.737Z,7.70
2018-07-19T23:25:22.907Z,8.38
2018-07-19T23:27:51.503Z,7.87
2018-07-19T23:30:19.680Z,8.53
2018-07-19T23:32:47.909Z,9.23
2018-07-19T23:35:16.387Z,8.28
2018-07-19T23:37:46.282Z,8.95
2018-07-19T23:40:20.336Z,8.70
2018-07-19T23:42:51.926Z,9.38
2018-07-19T23:45:26.351Z,9.28
2018-07-19T23:47:55.140Z,8.35
2018-07-19T23:50:23.166Z,8.50
2018-07-19T23:52:51.184Z,7.45
2018-07-19T23:55:19.260Z,7.85
2018-07-19T23:57:47.332Z,7.53
